createdAt,value
2023-02-19T00:02:02.799Z,7.93
2023-02-19T00:04:32.565Z,7.92
2023-02-19T00:07:00.907Z,7.97
2023-02-19T00:09:29.454Z,7.89
2023-02-19T00:11:57.747Z,7.87
2023-02-19T00:14:25.980Z,7.90
2023-02-19T00:16:54.449Z,7.84
2023-02-19T00:19:23.370Z,7.88
2023-02-19T00:21:54.551Z,7.96
2023-02-19T00:24:23.606Z,7.98
2023-02-19T00:26:52.251Z,7.88
2023-02-19T00:29:24.742Z,7.82
2023-02-19T00:31:53.469Z,7.78
2023-02-19T00:34:21.836Z,7.80
2023-02-19T00:36:50.430Z,7.80
2023-02-19T00:39:21.478Z,7.83
2023-02-19T00:41:50.138Z,7.75
2023-02-19T00:44:18.445Z,7.69
2023-02-19T00:46:49.777Z,7.60
2023-02-19T00:49:22.179Z,7.62
2023-02-19T00:51:52.581Z,7.64
2023-02-19T00:54:23.558Z,7.62
2023-02-19T00:56:52.917Z,7.62
2023-02-19T00:59:21.684Z,7.61
2023-02-19T01:01:50.599Z,7.56
2023-02-19T01:04:19.286Z,7.52
2023-02-19T01:06:49.227Z,7.55
2023-02-19T01:09:17.961Z,7.58
2023-02-19T01:11:47.996Z,7.51
2023-02-19T01:14:16.446Z,7.48
2023-02-19T01:16:44.776Z,7.45
2023-02-19T01:19:13.723Z,7.45
2023-02-19T01:21:42.351Z,7.43
2023-02-19T01:24:12.135Z,7.37
2023-02-19T01:26:41.405Z,7.42
2023-02-19T01:29:11.749Z,7.41
2023-02-19T01:31:42.234Z,7.37
2023-02-19T01:34:13.212Z,7.36
2023-02-19T01:36:42.086Z,7.34
2023-02-19T01:39:12.040Z,7.33
2023-02-19T01:41:42.672Z,7.29
2023-02-19T01:45:03.207Z,7.28
2023-02-19T01:47:33.441Z,7.23
2023-02-19T01:50:01.822Z,7.24
2023-02-19T01:52:35.110Z,7.23
2023-02-19T01:55:09.017Z,7.25
2023-02-19T01:57:44.868Z,7.23
2023-02-19T02:00:17.664Z,7.25
2023-02-19T02:02:53.736Z,7.22
2023-02-19T02:05:50.156Z,7.25
2023-02-19T02:08:38.139Z,7.22
2023-02-19T02:11:06.805Z,7.25
2023-02-19T02:13:37.831Z,7.22
2023-02-19T02:16:22.128Z,7.21
2023-02-19T02:19:03.524Z,7.21
2023-02-19T02:22:08.809Z,7.19
2023-02-19T02:25:29.587Z,7.15
2023-02-19T02:28:25.437Z,7.15
2023-02-19T02:30:59.010Z,7.11
2023-02-19T02:33:39.764Z,7.08
2023-02-19T02:36:14.234Z,7.01
2023-02-19T02:38:52.949Z,7.01
2023-02-19T02:41:24.047Z,7.02
2023-02-19T02:43:55.440Z,6.99
2023-02-19T02:46:35.369Z,7.02
2023-02-19T02:49:08.397Z,7.02
2023-02-19T02:51:44.639Z,7.02
2023-02-19T02:54:44.719Z,6.98
2023-02-19T02:57:18.150Z,6.98
2023-02-19T02:59:58.470Z,7.00
2023-02-19T03:02:31.689Z,6.98
2023-02-19T03:05:28.846Z,6.96
2023-02-19T03:08:05.749Z,6.98
2023-02-19T03:10:40.176Z,7.00
2023-02-19T03:13:34.144Z,6.96
2023-02-19T03:16:27.937Z,6.93
2023-02-19T03:19:30.517Z,6.92
2023-02-19T03:22:10.078Z,6.93
2023-02-19T03:25:01.540Z,7.00
2023-02-19T03:27:35.663Z,6.89
2023-02-19T03:30:13.021Z,6.90
2023-02-19T03:32:48.400Z,6.96
2023-02-19T03:35:21.572Z,6.93
2023-02-19T03:38:01.735Z,6.84
2023-02-19T03:40:35.441Z,6.84
2023-02-19T03:43:18.521Z,6.86
2023-02-19T03:45:57.949Z,6.82
2023-02-19T03:48:32.206Z,6.83
2023-02-19T03:51:19.392Z,6.85
2023-02-19T03:53:56.997Z,6.85
2023-02-19T03:56:36.353Z,6.84
2023-02-19T03:59:13.678Z,6.87
2023-02-19T04:01:47.829Z,6.91
2023-02-19T04:04:24.487Z,6.92
2023-02-19T04:06:57.982Z,6.93
2023-02-19T04:09:38.013Z,6.94
2023-02-19T04:12:13.818Z,6.94
2023-02-19T04:14:49.574Z,6.93
2023-02-19T04:17:25.777Z,6.88
2023-02-19T04:19:57.828Z,6.90
2023-02-19T04:22:29.070Z,6.88
2023-02-19T04:24:57.874Z,6.88
2023-02-19T04:27:26.254Z,6.89
2023-02-19T04:29:57.606Z,6.90
2023-02-19T04:32:26.244Z,6.92
2023-02-19T04:34:54.620Z,6.94
2023-02-19T04:37:22.966Z,6.98
2023-02-19T04:39:56.445Z,7.00
2023-02-19T04:42:24.805Z,6.94
2023-02-19T04:44:53.473Z,6.98
2023-02-19T04:47:21.813Z,6.98
2023-02-19T04:49:50.178Z,6.97
2023-02-19T04:52:18.677Z,7.00
2023-02-19T04:54:47.069Z,6.97
2023-02-19T04:57:16.897Z,6.97
2023-02-19T04:59:45.258Z,7.01
2023-02-19T05:02:13.701Z,7.06
2023-02-19T05:04:42.961Z,7.09
2023-02-19T05:07:11.385Z,7.12
2023-02-19T05:09:39.814Z,7.11
2023-02-19T05:12:08.530Z,7.10
2023-02-19T05:14:38.341Z,7.14
2023-02-19T05:17:06.738Z,7.07
2023-02-19T05:19:35.113Z,7.06
2023-02-19T05:22:03.503Z,7.02
2023-02-19T05:24:32.000Z,6.98
2023-02-19T05:27:00.356Z,6.96
2023-02-19T05:29:28.877Z,6.98
2023-02-19T05:31:58.781Z,7.02
2023-02-19T05:34:27.124Z,6.95
2023-02-19T05:36:55.493Z,6.92
2023-02-19T05:39:23.918Z,6.93
2023-02-19T05:41:52.244Z,6.94
2023-02-19T05:44:20.573Z,6.91
2023-02-19T05:46:48.892Z,6.93
2023-02-19T05:49:18.748Z,6.91
2023-02-19T05:51:47.140Z,6.93
2023-02-19T05:54:15.426Z,6.94
2023-02-19T05:56:44.199Z,6.90
2023-02-19T05:59:19.450Z,6.87
2023-02-19T06:01:48.732Z,6.90
2023-02-19T06:04:19.993Z,6.87
2023-02-19T06:06:49.490Z,6.84
2023-02-19T06:09:18.154Z,6.77
2023-02-19T06:11:46.822Z,6.73
2023-02-19T06:14:15.771Z,6.67
2023-02-19T06:16:44.278Z,6.69
2023-02-19T06:19:12.987Z,6.66
2023-02-19T06:21:46.710Z,6.61
2023-02-19T06:24:15.926Z,6.59
2023-02-19T06:26:44.598Z,6.50
2023-02-19T06:29:16.543Z,6.46
2023-02-19T06:31:46.811Z,6.47
2023-02-19T06:34:15.347Z,6.39
2023-02-19T06:36:45.049Z,6.40
2023-02-19T06:39:13.425Z,6.37
2023-02-19T06:41:41.771Z,6.37
2023-02-19T06:44:11.245Z,6.40
2023-02-19T06:46:39.948Z,6.43
2023-02-19T06:49:08.832Z,6.42
2023-02-19T06:51:37.486Z,6.47
2023-02-19T06:54:07.367Z,6.43
2023-02-19T06:56:38.382Z,6.47
2023-02-19T06:59:10.826Z,6.53
2023-02-19T07:01:40.374Z,6.47
2023-02-19T07:04:09.377Z,6.50
2023-02-19T07:06:42.883Z,6.49
2023-02-19T07:09:12.926Z,6.55
2023-02-19T07:11:41.734Z,6.56
2023-02-19T07:14:16.199Z,6.59
2023-02-19T07:16:44.789Z,6.60
2023-02-19T07:19:13.259Z,6.62
2023-02-19T07:21:42.365Z,6.61
2023-02-19T07:24:12.741Z,6.57
2023-02-19T07:26:41.349Z,6.65
2023-02-19T07:29:11.874Z,6.63
2023-02-19T07:31:40.552Z,6.65
2023-02-19T07:34:09.051Z,6.67
2023-02-19T07:36:38.732Z,6.77
2023-02-19T07:39:09.205Z,6.82
2023-02-19T07:41:40.386Z,6.81
2023-02-19T07:44:08.992Z,6.79
2023-02-19T07:46:37.297Z,6.78
2023-02-19T07:49:07.169Z,6.75
2023-02-19T07:51:35.665Z,6.83
2023-02-19T07:54:04.248Z,6.85
2023-02-19T07:56:32.652Z,6.84
2023-02-19T07:59:02.979Z,6.83
2023-02-19T08:01:48.824Z,6.89
2023-02-19T08:04:17.910Z,6.93
2023-02-19T08:06:46.251Z,6.98
2023-02-19T08:09:14.585Z,7.03
2023-02-19T08:12:00.257Z,7.13
2023-02-19T08:14:31.569Z,7.63
2023-02-19T08:17:00.021Z,7.75
2023-02-19T08:19:28.317Z,7.59
2023-02-19T08:21:56.599Z,7.35
2023-02-19T08:24:24.986Z,7.20
2023-02-19T08:26:53.574Z,7.42
2023-02-19T08:29:21.886Z,7.49
2023-02-19T08:31:51.690Z,7.56
2023-02-19T08:34:20.098Z,7.50
2023-02-19T08:36:48.497Z,7.57
2023-02-19T08:39:17.389Z,7.70
2023-02-19T08:41:47.969Z,7.67
2023-02-19T08:44:16.260Z,7.59
2023-02-19T08:46:44.627Z,7.60
2023-02-19T08:49:14.402Z,7.57
2023-02-19T08:51:42.873Z,7.54
2023-02-19T08:54:12.285Z,7.53
2023-02-19T08:56:40.599Z,7.44
2023-02-19T08:59:08.896Z,7.46
2023-02-19T09:01:37.474Z,7.41
2023-02-19T09:04:06.237Z,7.22
2023-02-19T09:06:36.022Z,7.11
2023-02-19T09:09:04.469Z,7.06
2023-02-19T09:11:33.269Z,6.98
2023-02-19T09:14:02.181Z,6.95
2023-02-19T09:16:31.248Z,6.86
2023-02-19T09:18:59.518Z,6.93
2023-02-19T09:21:27.931Z,7.08
2023-02-19T09:23:57.825Z,7.13
2023-02-19T09:26:26.250Z,7.23
2023-02-19T09:28:56.024Z,7.30
2023-02-19T09:31:25.310Z,7.41
2023-02-19T09:33:53.895Z,7.43
2023-02-19T09:36:22.227Z,7.44
2023-02-19T09:38:50.877Z,7.42
2023-02-19T09:41:30.210Z,7.53
2023-02-19T09:44:01.004Z,7.57
2023-02-19T09:46:34.394Z,7.68
2023-02-19T09:49:08.980Z,7.76
2023-02-19T09:51:41.146Z,7.83
2023-02-19T09:54:21.502Z,7.89
2023-02-19T09:56:51.840Z,7.94
2023-02-19T09:59:24.971Z,7.99
2023-02-19T10:02:00.677Z,8.19
2023-02-19T10:04:29.413Z,8.22
2023-02-19T10:07:03.886Z,8.23
2023-02-19T10:09:32.847Z,8.19
2023-02-19T10:12:03.129Z,8.10
2023-02-19T10:14:38.800Z,7.98
2023-02-19T10:17:12.159Z,8.02
2023-02-19T10:19:40.502Z,8.01
2023-02-19T10:22:11.894Z,7.99
2023-02-19T10:24:44.477Z,7.85
2023-02-19T10:27:17.126Z,7.81
2023-02-19T10:29:48.181Z,7.75
2023-02-19T10:32:22.931Z,7.76
2023-02-19T10:35:11.321Z,7.79
2023-02-19T10:37:46.175Z,8.03
2023-02-19T10:40:20.026Z,8.12
2023-02-19T10:42:53.174Z,8.12
2023-02-19T10:45:25.657Z,8.17
2023-02-19T10:47:54.815Z,8.06
2023-02-19T10:50:30.892Z,8.22
2023-02-19T10:53:01.904Z,8.34
2023-02-19T10:55:40.761Z,8.51
2023-02-19T10:58:27.842Z,8.81
2023-02-19T11:01:22.642Z,8.73
2023-02-19T11:03:53.175Z,8.74
2023-02-19T11:06:28.190Z,8.55
2023-02-19T11:09:00.980Z,8.24
2023-02-19T11:11:36.120Z,8.23
2023-02-19T11:14:16.509Z,8.24
2023-02-19T11:16:51.990Z,8.36
2023-02-19T11:19:42.763Z,8.85
2023-02-19T11:22:31.752Z,9.40
2023-02-19T11:25:07.692Z,8.99
2023-02-19T11:27:36.161Z,8.45
2023-02-19T11:30:40.535Z,8.59
2023-02-19T11:33:27.316Z,8.59
2023-02-19T11:36:19.526Z,9.03
2023-02-19T11:38:47.982Z,9.76
2023-02-19T11:41:36.926Z,9.94
2023-02-19T11:44:30.357Z,9.47
2023-02-19T11:47:27.234Z,9.27
2023-02-19T11:50:10.697Z,8.92
2023-02-19T11:52:49.355Z,8.73
2023-02-19T11:55:42.769Z,8.65
2023-02-19T11:58:40.944Z,8.58
2023-02-19T12:01:25.279Z,8.58
2023-02-19T12:05:02.139Z,9.13
2023-02-19T12:08:18.392Z,9.22
2023-02-19T12:11:09.935Z,9.10
2023-02-19T12:14:03.343Z,8.81
2023-02-19T12:16:42.593Z,8.79
2023-02-19T12:19:39.493Z,8.76
2023-02-19T12:22:27.831Z,8.86
2023-02-19T12:25:32.832Z,8.91
2023-02-19T12:28:21.627Z,8.75
2023-02-19T12:31:41.591Z,8.78
2023-02-19T12:34:32.069Z,8.72
2023-02-19T12:37:19.416Z,8.50
2023-02-19T12:40:00.852Z,8.76
2023-02-19T12:42:51.286Z,9.30
2023-02-19T12:45:25.637Z,9.21
2023-02-19T12:48:11.829Z,9.21
2023-02-19T12:50:43.252Z,8.94
2023-02-19T12:53:34.137Z,8.92
2023-02-19T12:56:10.659Z,8.98
2023-02-19T12:58:47.329Z,8.68
2023-02-19T13:01:24.830Z,8.53
2023-02-19T13:04:20.664Z,8.53
2023-02-19T13:06:57.694Z,8.51
2023-02-19T13:09:35.150Z,8.61
2023-02-19T13:12:09.650Z,8.71
2023-02-19T13:14:46.890Z,8.60
2023-02-19T13:17:28.493Z,8.29
2023-02-19T13:20:03.465Z,8.08
2023-02-19T13:22:58.396Z,7.87
2023-02-19T13:25:49.751Z,7.77
2023-02-19T13:28:42.321Z,7.78
2023-02-19T13:31:40.767Z,7.65
2023-02-19T13:34:26.778Z,7.84
2023-02-19T13:36:56.446Z,8.14
2023-02-19T13:39:25.556Z,8.25
2023-02-19T13:41:59.082Z,8.40
2023-02-19T13:44:31.479Z,8.31
2023-02-19T13:47:06.105Z,8.37
2023-02-19T13:49:43.203Z,8.42
2023-02-19T13:52:41.181Z,8.85
2023-02-19T13:55:52.085Z,11.04
2023-02-19T13:59:01.396Z,11.61
2023-02-19T14:02:26.645Z,10.16
2023-02-19T14:05:00.105Z,8.86
2023-02-19T14:07:56.744Z,9.27
2023-02-19T14:11:02.211Z,9.81
2023-02-19T14:14:06.708Z,8.96
2023-02-19T14:16:53.677Z,8.55
2023-02-19T14:20:42.962Z,8.67
2023-02-19T14:23:18.786Z,8.71
2023-02-19T14:25:58.613Z,9.02
2023-02-19T14:28:36.710Z,9.72
2023-02-19T14:31:19.075Z,9.71
2023-02-19T14:33:52.866Z,10.16
2023-02-19T14:36:48.986Z,9.59
2023-02-19T14:39:21.850Z,9.56
2023-02-19T14:41:54.414Z,8.85
2023-02-19T14:44:26.787Z,8.65
2023-02-19T14:47:04.417Z,8.52
2023-02-19T14:49:42.691Z,8.39
2023-02-19T14:52:23.554Z,8.34
2023-02-19T14:54:56.520Z,8.27
2023-02-19T14:57:30.430Z,8.25
2023-02-19T15:00:01.635Z,8.25
2023-02-19T15:02:33.397Z,8.29
2023-02-19T15:05:15.829Z,8.33
2023-02-19T15:07:46.389Z,8.43
2023-02-19T15:10:16.563Z,8.44
2023-02-19T15:12:52.156Z,8.41
2023-02-19T15:15:25.419Z,8.40
2023-02-19T15:17:56.520Z,8.58
2023-02-19T15:20:29.099Z,8.51
2023-02-19T15:23:02.745Z,8.58
2023-02-19T15:25:37.176Z,8.59
2023-02-19T15:28:29.544Z,8.58
2023-02-19T15:31:20.188Z,8.71
2023-02-19T15:33:53.105Z,8.58
2023-02-19T15:36:31.226Z,8.41
2023-02-19T15:39:03.927Z,8.34
2023-02-19T15:41:36.140Z,8.30
2023-02-19T15:44:33.705Z,8.29
2023-02-19T15:47:13.230Z,8.14
2023-02-19T15:49:51.379Z,8.10
2023-02-19T15:52:33.881Z,8.05
2023-02-19T15:55:19.335Z,8.02
2023-02-19T15:58:03.582Z,7.98
2023-02-19T16:00:40.517Z,7.95
2023-02-19T16:03:21.984Z,7.97
2023-02-19T16:06:04.062Z,7.94
2023-02-19T16:08:35.693Z,7.84
2023-02-19T16:11:27.524Z,7.81
2023-02-19T16:14:30.332Z,7.79
2023-02-19T16:17:07.241Z,7.75
2023-02-19T16:19:48.112Z,7.70
2023-02-19T16:22:22.210Z,7.69
2023-02-19T16:24:53.593Z,7.61
2023-02-19T16:27:36.813Z,7.61
2023-02-19T16:30:10.476Z,7.63
2023-02-19T16:32:38.893Z,7.62
2023-02-19T16:35:37.883Z,7.57
2023-02-19T16:38:15.406Z,7.55
2023-02-19T16:41:13.880Z,7.49
2023-02-19T16:43:44.992Z,7.55
2023-02-19T16:46:14.672Z,7.42
2023-02-19T16:48:43.208Z,7.10
2023-02-19T16:51:27.796Z,6.67
2023-02-19T16:53:56.160Z,6.50
2023-02-19T16:56:25.410Z,6.46
2023-02-19T16:58:54.995Z,6.45
2023-02-19T17:01:27.282Z,6.49
2023-02-19T17:04:02.423Z,6.46
2023-02-19T17:06:32.775Z,6.47
2023-02-19T17:09:01.101Z,6.43
2023-02-19T17:11:29.333Z,6.43
2023-02-19T17:13:59.728Z,6.46
2023-02-19T17:16:31.722Z,6.46
2023-02-19T17:19:00.310Z,6.47
2023-02-19T17:21:31.903Z,6.50
2023-02-19T17:24:00.282Z,6.47
2023-02-19T17:26:31.219Z,6.48
2023-02-19T17:29:02.936Z,6.45
2023-02-19T17:31:31.323Z,6.43
2023-02-19T17:34:00.721Z,6.43
2023-02-19T17:36:32.200Z,6.36
2023-02-19T17:39:02.591Z,6.33
2023-02-19T17:41:31.791Z,6.28
2023-02-19T17:44:01.480Z,6.22
2023-02-19T17:46:29.965Z,6.22
2023-02-19T17:48:58.709Z,6.20
2023-02-19T17:51:27.141Z,6.21
2023-02-19T17:53:55.881Z,6.20
2023-02-19T17:56:27.434Z,6.26
2023-02-19T17:58:57.302Z,6.31
2023-02-19T18:01:27.110Z,6.30
2023-02-19T18:03:55.943Z,6.33
2023-02-19T18:06:24.536Z,6.35
2023-02-19T18:08:54.713Z,6.37
2023-02-19T18:11:24.640Z,6.40
2023-02-19T18:13:57.442Z,6.34
2023-02-19T18:16:27.261Z,6.38
2023-02-19T18:18:58.378Z,6.41
2023-02-19T18:21:26.947Z,6.35
2023-02-19T18:23:55.252Z,6.35
2023-02-19T18:26:24.728Z,6.33
2023-02-19T18:28:53.210Z,6.31
2023-02-19T18:31:21.724Z,6.28
2023-02-19T18:33:51.444Z,6.32
2023-02-19T18:36:19.843Z,6.32
2023-02-19T18:38:48.484Z,6.37
2023-02-19T18:41:21.034Z,6.35
2023-02-19T18:43:50.303Z,6.40
2023-02-19T18:46:22.622Z,6.46
2023-02-19T18:48:52.307Z,6.40
2023-02-19T18:51:23.434Z,6.41
2023-02-19T18:53:52.009Z,6.39
2023-02-19T18:56:20.360Z,6.42
2023-02-19T18:58:50.363Z,6.43
2023-02-19T19:01:18.969Z,6.50
2023-02-19T19:03:47.589Z,6.47
2023-02-19T19:06:17.209Z,6.45
2023-02-19T19:08:45.618Z,6.48
2023-02-19T19:11:14.613Z,6.47
2023-02-19T19:13:43.084Z,6.45
2023-02-19T19:16:11.372Z,6.43
2023-02-19T19:18:39.629Z,6.45
2023-02-19T19:21:09.925Z,6.46
2023-02-19T19:23:39.737Z,6.47
2023-02-19T19:26:09.891Z,6.46
2023-02-19T19:28:40.620Z,6.46
2023-02-19T19:31:09.045Z,6.43
2023-02-19T19:33:41.069Z,6.41
2023-02-19T19:36:12.090Z,6.37
2023-02-19T19:38:41.967Z,6.36
2023-02-19T19:41:10.760Z,6.38
2023-02-19T19:43:39.655Z,6.41
2023-02-19T19:46:09.916Z,6.40
2023-02-19T19:48:40.812Z,6.38
2023-02-19T19:51:09.640Z,6.36
2023-02-19T19:53:38.752Z,6.42
2023-02-19T19:56:09.426Z,6.37
2023-02-19T19:58:41.326Z,6.38
2023-02-19T20:01:09.809Z,6.37
2023-02-19T20:03:39.329Z,6.41
2023-02-19T20:06:11.824Z,6.43
2023-02-19T20:08:40.152Z,6.41
2023-02-19T20:11:10.069Z,6.38
2023-02-19T20:13:38.586Z,6.34
2023-02-19T20:16:10.819Z,6.29
2023-02-19T20:18:39.269Z,6.25
2023-02-19T20:21:10.298Z,6.28
2023-02-19T20:23:40.312Z,6.27
2023-02-19T20:26:10.380Z,6.26
2023-02-19T20:28:38.728Z,6.23
2023-02-19T20:31:09.435Z,6.21
2023-02-19T20:33:37.923Z,6.19
2023-02-19T20:36:07.564Z,6.18
2023-02-19T20:38:35.991Z,6.16
2023-02-19T20:41:04.566Z,6.15
2023-02-19T20:43:34.492Z,6.12
2023-02-19T20:46:03.337Z,6.09
2023-02-19T20:48:31.728Z,6.06
2023-02-19T20:51:02.581Z,6.10
2023-02-19T20:53:32.351Z,6.11
2023-02-19T20:56:00.867Z,6.10
2023-02-19T20:58:29.126Z,6.10
2023-02-19T21:00:58.833Z,6.11
2023-02-19T21:03:27.124Z,6.13
2023-02-19T21:05:55.779Z,6.15
2023-02-19T21:08:24.208Z,6.13
2023-02-19T21:10:52.800Z,6.14
2023-02-19T21:13:21.133Z,6.14
2023-02-19T21:15:49.454Z,6.12
2023-02-19T21:18:19.931Z,6.14
2023-02-19T21:20:49.359Z,6.17
2023-02-19T21:23:17.956Z,6.14
2023-02-19T21:25:46.417Z,6.14
2023-02-19T21:28:15.093Z,6.11
2023-02-19T21:30:43.376Z,6.08
2023-02-19T21:33:11.737Z,6.08
2023-02-19T21:35:41.388Z,6.04
2023-02-19T21:38:10.181Z,6.11
2023-02-19T21:40:38.541Z,6.12
2023-02-19T21:43:07.092Z,6.12
2023-02-19T21:45:35.700Z,6.13
2023-02-19T21:48:04.021Z,6.14
2023-02-19T21:50:32.608Z,6.13
2023-02-19T21:53:02.554Z,6.16
2023-02-19T21:55:31.575Z,6.15
2023-02-19T21:58:00.317Z,6.14
2023-02-19T22:00:28.666Z,6.19
2023-02-19T22:02:57.407Z,6.15
2023-02-19T22:05:28.417Z,6.13
2023-02-19T22:07:58.391Z,6.11
2023-02-19T22:10:28.086Z,6.11
2023-02-19T22:12:57.059Z,6.12
2023-02-19T22:15:25.658Z,6.11
2023-02-19T22:17:53.972Z,6.11
2023-02-19T22:20:22.747Z,6.12
2023-02-19T22:22:51.155Z,6.10
2023-02-19T22:25:19.871Z,6.07
2023-02-19T22:27:50.096Z,6.15
2023-02-19T22:30:18.983Z,6.19
2023-02-19T22:32:47.482Z,6.19
2023-02-19T22:35:16.051Z,6.15
2023-02-19T22:37:44.553Z,6.17
2023-02-19T22:40:13.970Z,6.15
2023-02-19T22:42:42.573Z,6.17
2023-02-19T22:45:13.795Z,6.15
2023-02-19T22:47:43.760Z,6.16
2023-02-19T22:50:19.584Z,6.17
2023-02-19T22:52:47.917Z,6.14
2023-02-19T22:55:17.437Z,6.18
2023-02-19T22:57:45.743Z,6.13
2023-02-19T23:00:21.674Z,6.09
2023-02-19T23:02:50.771Z,6.08
2023-02-19T23:05:19.138Z,6.12
2023-02-19T23:07:47.899Z,6.10
2023-02-19T23:10:16.207Z,6.04
2023-02-19T23:12:44.822Z,6.02
2023-02-19T23:15:13.473Z,6.01
2023-02-19T23:17:43.237Z,6.02
2023-02-19T23:20:16.139Z,5.95
2023-02-19T23:22:44.686Z,5.93
2023-02-19T23:25:12.967Z,5.90
2023-02-19T23:27:41.322Z,5.89
2023-02-19T23:30:10.987Z,5.86
2023-02-19T23:32:40.376Z,5.87
2023-02-19T23:35:10.160Z,5.93
2023-02-19T23:37:38.571Z,5.91
2023-02-19T23:40:08.651Z,5.88
2023-02-19T23:42:37.493Z,5.88
2023-02-19T23:45:06.573Z,5.90
2023-02-19T23:47:34.877Z,5.87
2023-02-19T23:50:03.230Z,5.89
2023-02-19T23:52:32.945Z,5.90
2023-02-19T23:55:01.302Z,5.91
2023-02-19T23:57:29.979Z,5.91
2023-02-19T23:59:58.272Z,5.92
